»·PEaware :: N369LH KSNA-KCMA

N369LH :: KSNA-KCMA

FLIGHT INFORMATION

Flight Status: Arrived
Operator: Privately registered:
United States
More flights under this callsign
Pilot: Anonymous 17480 (17480)
Aircraft: PILATUS PC-12 EAGLE
(PC12)
More flights by this aircraft type
Origin: KSNA John Wayne-Orange Co
United States
Destination: KCMA Camarillo
United States
More flights between these airports :: More routes between these airports
Route: SLI V23 LAX VNY
File this flight plan on PilotEdge
Remarks:
Altitude:
(Current/Filed)
6,000ft
Speed:
(Current/Filed)
240kts
Departed: 05-Dec-18 08:59 PM
Arrived: 05-Dec-18 09:34 PM
Distance/Time
Traveled:
69nm/0:34
Distance/Time
To Go:
Arrived

Flight Plot

Page will automatically refresh every two minutes.


Map Options




Map Legend


Flown Route
Filed Route
Departure Airport
Arrival Airport
Navaid (VOR, NDB)
Fix

Horizontal Profiles

Position Reports

Time Latitude Longitude Heading Altitude Ground
Speed
05-Dec-18 20:46 33.671596 -117.867559 208 53ft 0kts
05-Dec-18 20:47 33.671596 -117.867559 208 53ft 0kts
05-Dec-18 20:48 33.671596 -117.867559 208 53ft 0kts
05-Dec-18 20:49 33.671596 -117.867559 208 53ft 0kts
05-Dec-18 20:50 33.671596 -117.867559 208 53ft 0kts
05-Dec-18 20:51 33.671596 -117.867559 208 53ft 0kts
05-Dec-18 20:52 33.671596 -117.867559 208 53ft 0kts
05-Dec-18 20:53 33.671596 -117.867559 208 53ft 0kts
05-Dec-18 20:54 33.671446 -117.868010 291 53ft 10kts
05-Dec-18 20:55 33.675137 -117.865828 27 49ft 26kts
05-Dec-18 20:56 33.679796 -117.863269 308 53ft 5kts
05-Dec-18 20:57 33.680029 -117.863778 293 53ft 7kts
05-Dec-18 20:58 33.676917 -117.868046 206 53ft 98kts
05-Dec-18 20:59 33.646322 -117.881024 186 1613ft 157kts
05-Dec-18 21:00 33.599725 -117.888340 186 3522ft 177kts
05-Dec-18 21:01 33.552500 -117.894623 186 5668ft 176kts
05-Dec-18 21:02 33.532282 -117.937665 315 6012ft 221kts
05-Dec-18 21:03 33.588771 -117.957068 341 6003ft 233kts
05-Dec-18 21:04 33.650948 -117.986755 338 6011ft 247kts
05-Dec-18 21:05 33.713917 -118.018886 338 6013ft 249kts
05-Dec-18 21:06 33.776663 -118.052221 325 6013ft 250kts
05-Dec-18 21:07 33.810526 -118.123610 295 6017ft 252kts
05-Dec-18 21:08 33.836547 -118.188787 295 6018ft 252kts
05-Dec-18 21:09 33.866505 -118.264174 295 6013ft 252kts
05-Dec-18 21:10 33.896371 -118.339499 295 6009ft 252kts
05-Dec-18 21:11 33.922603 -118.405839 295 6010ft 252kts
05-Dec-18 21:12 33.973310 -118.440075 350 6011ft 250kts
05-Dec-18 21:13 34.041414 -118.454389 351 6013ft 250kts
05-Dec-18 21:14 34.107169 -118.467934 351 6013ft 251kts
05-Dec-18 21:15 34.167822 -118.480454 351 6008ft 250kts
05-Dec-18 21:16 34.219954 -118.519063 268 6018ft 250kts
05-Dec-18 21:17 34.209552 -118.599483 262 5999ft 240kts
05-Dec-18 21:18 34.198069 -118.676258 261 6000ft 239kts
05-Dec-18 21:19 34.189696 -118.757818 261 5998ft 250kts
05-Dec-18 21:20 34.182539 -118.841923 261 5998ft 252kts
05-Dec-18 21:21 34.175369 -118.925954 261 5998ft 252kts
05-Dec-18 21:22 34.168206 -119.008310 262 5149ft 240kts
05-Dec-18 21:23 34.160218 -119.087852 262 4008ft 230kts
05-Dec-18 21:24 34.151598 -119.166887 261 3996ft 245kts
05-Dec-18 21:25 34.142709 -119.248587 262 3992ft 246kts
05-Dec-18 21:26 34.149187 -119.325931 327 3666ft 246kts
05-Dec-18 21:27 34.199797 -119.305858 61 2179ft 215kts
05-Dec-18 21:28 34.201409 -119.250834 88 670ft 86kts
05-Dec-18 21:29 34.208990 -119.220270 49 893ft 106kts
05-Dec-18 21:30 34.215055 -119.174906 91 1269ft 169kts
05-Dec-18 21:32 34.213609 -119.128605 84 475ft 85kts
05-Dec-18 21:33 34.213793 -119.100388 85 79ft 80kts
05-Dec-18 21:34 34.212844 -119.090970 180 77ft 7kts
05-Dec-18 21:35 34.211001 -119.090379 276 77ft 21kts
05-Dec-18 21:36 34.210543 -119.091513 84 78ft 0kts

Navigation Log

Ident Type
Flight plan parsing failed, navigation log unavailable